Main page
METAR-TAF:

METAR-TAF

Airports :

Isle of Man Airport

Isle of Man,

latitude: 54-05N, longitude: 004-38W, elevation: 17 m

Current weather observation

The report was made 26 minutes ago, at 08:50 UTC
Wind 9 kt from the West/Northwest, varying between West/Southwest and North/Northwest
Temperature 9°C
Humidity 71%
Pressure 1034 hPa
Visibility 10 km or more
Broken clouds at a height of 3700 ft

METAR: EGNS 260850Z 29009KT 250V340 9999 BKN037 09/04 Q1034 NOSIG

Time: 09:16 (09:16 UTC)

Forecast

The report was made 1 hour and 16 minutes ago, at 08:00 UTC
Forecast valid from 26 at 09 UTC to 26 at 18 UTC
Wind 10 kt from the West
Visibility 10 km or more
Few clouds at a height of 2500 ft
Broken clouds at a height of 3500 ft

TAF: EGNS 260800Z 2609/2618 28010KT 9999 FEW025 BKN035

Weather observations and forecasts of more than 4000 airports (METAR and TAF reports).

The available stations are represented by yellow and red dots on the map.

Hover mouse over dot to see the name of the station.

Then click to see weather observations and forecasts.

To change the map : click on the green buttons with a black cross to zoom in, on the green button with a dash to zoom out, or on the green arrows for adjacent maps.


METAR-TAF: